Observation data for Anton on 08/06/2020      Previous  Date       Current Mesonet Observations  Soil Data  Daily Summary Page  Observations in Plain Language
KAOS 060500Z 11010KT 28/15 A30 RMK A01 T02750151  RH  049%=      5-min Rain = 0
KAOS 060505Z 10010KT 27/15 A30 RMK A01 T02730153  RH  050%=      5-min Rain = 0
KAOS 060510Z 10011KT 27/15 A30 RMK A01 T02720154  RH  051%=      5-min Rain = 0
KAOS 060515Z 10012KT 27/16 A30 RMK A01 T02710155  RH  051%=      5-min Rain = 0
KAOS 060520Z 10011KT 27/16 A30 RMK A01 T02690155  RH  052%=      5-min Rain = 0
KAOS 060525Z 10011KT 27/16 A30 RMK A01 T02680155  RH  052%=      5-min Rain = 0
KAOS 060530Z 10011KT 27/15 A30 RMK A01 T02670154  RH  052%=      5-min Rain = 0
KAOS 060535Z 10011KT 27/15 A30 RMK A01 T02660154  RH  052%=      5-min Rain = 0
KAOS 060540Z 10012KT 27/15 A30 RMK A01 T02660154  RH  052%=      5-min Rain = 0
KAOS 060545Z 10012KT 27/15 A30 RMK A01 T02650154  RH  053%=      5-min Rain = 0
KAOS 060550Z 10012KT 26/15 A30 RMK A01 T02640154  RH  053%=      5-min Rain = 0
KAOS 060555Z 10012KT 26/16 A30 RMK A01 T02620155  RH  054%=      5-min Rain = 0
KAOS 060600Z 10011KT 26/16 A30 RMK A01 T02600155  RH  055%=      5-min Rain = 0
KAOS 060605Z 09011KT 26/16 A30 RMK A01 T02580155  RH  055%=      5-min Rain = 0
KAOS 060610Z 09011KT 26/16 A30 RMK A01 T02550155  RH  056%=      5-min Rain = 0
KAOS 060615Z 09010KT 25/16 A30 RMK A01 T02540155  RH  057%=      5-min Rain = 0
KAOS 060620Z 09010KT 25/16 A3001 RMK A01 T02520155  RH  057%=      5-min Rain = 0
KAOS 060625Z 10009KT 25/16 A30 RMK A01 T02500155  RH  058%=      5-min Rain = 0
KAOS 060630Z 10009KT 25/16 A30 RMK A01 T02480155  RH  059%=      5-min Rain = 0
KAOS 060635Z 10007KT 25/15 A30 RMK A01 T02460154  RH  059%=      5-min Rain = 0
KAOS 060640Z 11006KT 24/15 A30 RMK A01 T02430154  RH  060%=      5-min Rain = 0
KAOS 060645Z 13005KT 24/15 A30 RMK A01 T02420153  RH  060%=      5-min Rain = 0
KAOS 060650Z 12006KT 24/15 A30 RMK A01 T02410151  RH  060%=      5-min Rain = 0
KAOS 060655Z 12008KT 24/15 A30 RMK A01 T02410151  RH  059%=      5-min Rain = 0
KAOS 060700Z 12008KT 24/15 A30 RMK A01 T02400149  RH  059%=      5-min Rain = 0
KAOS 060705Z 11008KT 24/15 A30 RMK A01 T02410149  RH  059%=      5-min Rain = 0
KAOS 060710Z 11008KT 24/15 A30 RMK A01 T02440149  RH  058%=      5-min Rain = 0
KAOS 060715Z 11007KT 24/15 A30 RMK A01 T02440148  RH  058%=      5-min Rain = 0
KAOS 060720Z 11008KT 24/15 A2999 RMK A01 T02440147  RH  057%=      5-min Rain = 0
KAOS 060725Z 11008KT 25/15 A2999 RMK A01 T02450145  RH  056%=      5-min Rain = 0
KAOS 060730Z 11008KT 25/14 A2999 RMK A01 T02470142  RH  054%=      5-min Rain = 0
KAOS 060735Z 11008KT 25/14 A2999 RMK A01 T02460142  RH  055%=      5-min Rain = 0
KAOS 060740Z 11008KT 24/14 A2999 RMK A01 T02440143  RH  056%=      5-min Rain = 0
KAOS 060745Z 11009KT 24/14 A2999 RMK A01 T02430143  RH  056%=      5-min Rain = 0
KAOS 060750Z 12009KT 25/14 A2999 RMK A01 T02450140  RH  054%=      5-min Rain = 0
KAOS 060755Z 12009KT 25/14 A2999 RMK A01 T02470137  RH  053%=      5-min Rain = 0
KAOS 060800Z 13009KT 25/14 A2999 RMK A01 T02480135  RH  052%=      5-min Rain = 0
KAOS 060805Z 13010KT 25/13 A2999 RMK A01 T02480133  RH  051%=      5-min Rain = 0
KAOS 060810Z 14010KT 25/13 A2999 RMK A01 T02470129  RH  050%=      5-min Rain = 0
KAOS 060815Z 14010KT 25/13 A2999 RMK A01 T02470126  RH  049%=      5-min Rain = 0
KAOS 060820Z 15010KT 25/12 A2999 RMK A01 T02470124  RH  048%=      5-min Rain = 0
KAOS 060825Z 15011KT 25/12 A2999 RMK A01 T02490120  RH  046%=      5-min Rain = 0
KAOS 060830Z 16012KT 25/12 A2999 RMK A01 T02510119  RH  045%=      5-min Rain = 0
KAOS 060835Z 16012KT 25/12 A2999 RMK A01 T02500118  RH  045%=      5-min Rain = 0
KAOS 060840Z 16011KT 25/12 A2999 RMK A01 T02490118  RH  046%=      5-min Rain = 0
KAOS 060845Z 17010KT 25/12 A2999 RMK A01 T02480117  RH  046%=      5-min Rain = 0
KAOS 060850Z 17010KT 25/12 A2999 RMK A01 T02480117  RH  046%=      5-min Rain = 0
KAOS 060855Z 17009KT 25/12 A2999 RMK A01 T02470117  RH  046%=      5-min Rain = 0
KAOS 060900Z 18009KT 25/12 A30 RMK A01 T02470117  RH  046%=      5-min Rain = 0
KAOS 060905Z 18008KT 25/12 A30 RMK A01 T02470116  RH  046%=      5-min Rain = 0
KAOS 060910Z 17008KT 25/12 A30 RMK A01 T02460116  RH  046%=      5-min Rain = 0
KAOS 060915Z 17008KT 24/12 A30 RMK A01 T02440117  RH  047%=      5-min Rain = 0
KAOS 060920Z 17008KT 24/12 A30 RMK A01 T02440117  RH  047%=      5-min Rain = 0
KAOS 060925Z 17008KT 24/12 A30 RMK A01 T02440118  RH  047%=      5-min Rain = 0
KAOS 060930Z 18008KT 25/12 A30 RMK A01 T02450119  RH  047%=      5-min Rain = 0
KAOS 060935Z 18008KT 25/12 A30 RMK A01 T02450119  RH  047%=      5-min Rain = 0
KAOS 060940Z 18008KT 25/12 A30 RMK A01 T02450120  RH  047%=      5-min Rain = 0
KAOS 060945Z 17008KT 25/12 A2999 RMK A01 T02460120  RH  047%=      5-min Rain = 0
KAOS 060950Z 17008KT 25/12 A30 RMK A01 T02450121  RH  048%=      5-min Rain = 0
KAOS 060955Z 17009KT 25/12 A30 RMK A01 T02450121  RH  048%=      5-min Rain = 0
KAOS 061000Z 18009KT 25/12 A30 RMK A01 T02450122  RH  048%=      5-min Rain = 0
KAOS 061005Z 18009KT 25/12 A30 RMK A01 T02450122  RH  048%=      5-min Rain = 0
KAOS 061010Z 18009KT 25/12 A30 RMK A01 T02450122  RH  048%=      5-min Rain = 0
KAOS 061015Z 19010KT 25/12 A30 RMK A01 T02470123  RH  048%=      5-min Rain = 0
KAOS 061020Z 19010KT 25/12 A30 RMK A01 T02480123  RH  048%=      5-min Rain = 0
KAOS 061025Z 19010KT 25/12 A30 RMK A01 T02480123  RH  048%=      5-min Rain = 0
KAOS 061030Z 19010KT 25/12 A30 RMK A01 T02470124  RH  048%=      5-min Rain = 0
KAOS 061035Z 19009KT 25/13 A30 RMK A01 T02460125  RH  048%=      5-min Rain = 0
KAOS 061040Z 20009KT 25/13 A30 RMK A01 T02460125  RH  049%=      5-min Rain = 0
KAOS 061045Z 20009KT 25/13 A30 RMK A01 T02470126  RH  049%=      5-min Rain = 0
KAOS 061050Z 20008KT 25/13 A30 RMK A01 T02470127  RH  049%=      5-min Rain = 0
KAOS 061055Z 20008KT 25/13 A30 RMK A01 T02470127  RH  049%=      5-min Rain = 0
KAOS 061100Z 20009KT 25/13 A3001 RMK A01 T02480128  RH  049%=      5-min Rain = 0
KAOS 061105Z 21009KT 25/13 A3001 RMK A01 T02480128  RH  049%=      5-min Rain = 0
KAOS 061110Z 22008KT 25/13 A3001 RMK A01 T02480128  RH  049%=      5-min Rain = 0
KAOS 061115Z 23007KT 25/13 A3002 RMK A01 T02460128  RH  050%=      5-min Rain = 0
KAOS 061120Z 23007KT 24/13 A3002 RMK A01 T02440129  RH  050%=      5-min Rain = 0
KAOS 061125Z 22007KT 24/13 A3002 RMK A01 T02440129  RH  051%=      5-min Rain = 0
KAOS 061130Z 22007KT 24/13 A3002 RMK A01 T02430129  RH  051%=      5-min Rain = 0
KAOS 061135Z 21006KT 24/13 A3002 RMK A01 T02410129  RH  052%=      5-min Rain = 0
KAOS 061140Z 20006KT 24/13 A3002 RMK A01 T02400129  RH  052%=      5-min Rain = 0
KAOS 061145Z 20006KT 24/13 A3002 RMK A01 T02390129  RH  052%=      5-min Rain = 0
KAOS 061150Z 19006KT 24/13 A3002 RMK A01 T02370129  RH  053%=      5-min Rain = 0
KAOS 061155Z 19006KT 24/13 A3002 RMK A01 T02370129  RH  053%=      5-min Rain = 0
KAOS 061200Z 19006KT 24/13 A3003 RMK A01 T02360129  RH  053%=      5-min Rain = 0
KAOS 061205Z 19006KT 24/13 A3003 RMK A01 T02360129  RH  053%=      5-min Rain = 0
KAOS 061210Z 18007KT 24/13 A3003 RMK A01 T02350129  RH  053%=      5-min Rain = 0
KAOS 061215Z 19006KT 24/13 A3003 RMK A01 T02350130  RH  054%=      5-min Rain = 0
KAOS 061220Z 18006KT 24/13 A3003 RMK A01 T02350130  RH  054%=      5-min Rain = 0
KAOS 061225Z 17006KT 23/13 A3003 RMK A01 T02340130  RH  054%=      5-min Rain = 0
KAOS 061230Z 17006KT 23/13 A3003 RMK A01 T02330131  RH  055%=      5-min Rain = 0
KAOS 061235Z 16006KT 23/13 A3003 RMK A01 T02330131  RH  055%=      5-min Rain = 0
KAOS 061240Z 17006KT 23/13 A3003 RMK A01 T02340131  RH  055%=      5-min Rain = 0
KAOS 061245Z 16006KT 24/13 A3003 RMK A01 T02350132  RH  055%=      5-min Rain = 0
KAOS 061250Z 16006KT 24/13 A3003 RMK A01 T02360133  RH  055%=      5-min Rain = 0
KAOS 061255Z 16007KT 24/13 A3003 RMK A01 T02380133  RH  054%=      5-min Rain = 0
KAOS 061300Z 17008KT 24/13 A3003 RMK A01 T02400133  RH  053%=      5-min Rain = 0
KAOS 061305Z 17009KT 24/13 A3003 RMK A01 T02420133  RH  053%=      5-min Rain = 0
KAOS 061310Z 18008KT 24/13 A3003 RMK A01 T02420134  RH  053%=      5-min Rain = 0
KAOS 061315Z 18007KT 24/14 A3004 RMK A01 T02420135  RH  053%=      5-min Rain = 0
KAOS 061320Z 18008KT 24/14 A3004 RMK A01 T02420135  RH  053%=      5-min Rain = 0
KAOS 061325Z 18008KT 24/14 A3004 RMK A01 T02420135  RH  053%=      5-min Rain = 0
KAOS 061330Z 18008KT 24/14 A3004 RMK A01 T02430135  RH  053%=      5-min Rain = 0
KAOS 061335Z 18008KT 24/14 A3004 RMK A01 T02440136  RH  053%=      5-min Rain = 0
KAOS 061340Z 18008KT 25/14 A3004 RMK A01 T02460137  RH  053%=      5-min Rain = 0
KAOS 061345Z 18009KT 25/14 A3004 RMK A01 T02520139  RH  051%=      5-min Rain = 0
KAOS 061350Z 18011KT 25/14 A3004 RMK A01 T02540139  RH  051%=      5-min Rain = 0
KAOS 061355Z 18013KT 26/14 A3004 RMK A01 T02550138  RH  051%=      5-min Rain = 0
KAOS 061400Z 18012KT 25/14 A3004 RMK A01 T02540139  RH  051%=      5-min Rain = 0
KAOS 061405Z 18014KT 26/14 A3004 RMK A01 T02560139  RH  050%=      5-min Rain = 0
KAOS 061410Z 18014KT 26/14 A3004 RMK A01 T02580139  RH  050%=      5-min Rain = 0
KAOS 061415Z 19014KT 26/14 A3004 RMK A01 T02610139  RH  049%=      5-min Rain = 0
KAOS 061420Z 19014KT 27/14 A3004 RMK A01 T02650141  RH  048%=      5-min Rain = 0
KAOS 061425Z 19013G19KT 27/14 A3004 RMK A01 T02710143  RH  047%=      5-min Rain = 0
KAOS 061430Z 19014KT 27/14 A3004 RMK A01 T02720143  RH  047%=      5-min Rain = 0
KAOS 061435Z 20016G21KT 27/14 A3004 RMK A01 T02720143  RH  047%=      5-min Rain = 0
KAOS 061440Z 19015KT 27/14 A3004 RMK A01 T02710143  RH  048%=      5-min Rain = 0
KAOS 061445Z 20016KT 27/14 A3004 RMK A01 T02720144  RH  047%=      5-min Rain = 0
KAOS 061450Z 20016KT 27/14 A3004 RMK A01 T02730144  RH  047%=      5-min Rain = 0
KAOS 061455Z 19016G21KT 28/14 A3004 RMK A01 T02770144  RH  046%=      5-min Rain = 0
KAOS 061500Z 19016G21KT 28/15 A3004 RMK A01 T02790145  RH  046%=      5-min Rain = 0
KAOS 061505Z 19017KT 28/14 A3004 RMK A01 T02810144  RH  045%=      5-min Rain = 0
KAOS 061510Z 19017KT 28/14 A3004 RMK A01 T02800144  RH  045%=      5-min Rain = 0
KAOS 061515Z 19015KT 28/15 A3004 RMK A01 T02800145  RH  045%=      5-min Rain = 0
KAOS 061520Z 19015KT 28/15 A3004 RMK A01 T02830146  RH  045%=      5-min Rain = 0
KAOS 061525Z 19015KT 29/15 A3004 RMK A01 T02850146  RH  045%=      5-min Rain = 0
KAOS 061530Z 19014KT 29/15 A3004 RMK A01 T02870147  RH  044%=      5-min Rain = 0
KAOS 061535Z 18014KT 29/15 A3004 RMK A01 T02890146  RH  044%=      5-min Rain = 0
KAOS 061540Z 19016G21KT 29/14 A3004 RMK A01 T02890142  RH  042%=      5-min Rain = 0
KAOS 061545Z 19017KT 29/14 A3004 RMK A01 T02920143  RH  042%=      5-min Rain = 0
KAOS 061550Z 18015G21KT 30/14 A3004 RMK A01 T02970144  RH  041%=      5-min Rain = 0
KAOS 061555Z 18018KT 30/14 A3004 RMK A01 T02950142  RH  041%=      5-min Rain = 0
KAOS 061600Z 18015KT 30/15 A3004 RMK A01 T02990145  RH  041%=      5-min Rain = 0
KAOS 061605Z 18016KT 30/14 A3004 RMK A01 T02970143  RH  041%=      5-min Rain = 0
KAOS 061610Z 17016G22KT 30/14 A3004 RMK A01 T03010144  RH  040%=      5-min Rain = 0
KAOS 061615Z 18017G22KT 31/14 A3004 RMK A01 T03060141  RH  038%=      5-min Rain = 0
KAOS 061620Z 18017KT 31/14 A3004 RMK A01 T03050143  RH  039%=      5-min Rain = 0
KAOS 061625Z 18015G22KT 31/14 A3004 RMK A01 T03070143  RH  038%=      5-min Rain = 0
KAOS 061630Z 18017G23KT 31/14 A3004 RMK A01 T03080142  RH  038%=      5-min Rain = 0
KAOS 061635Z 18017G22KT 31/14 A3004 RMK A01 T03100143  RH  038%=      5-min Rain = 0
KAOS 061640Z 18016G21KT 31/14 A3004 RMK A01 T03120143  RH  037%=      5-min Rain = 0
KAOS 061645Z 18016G21KT 31/14 A3004 RMK A01 T03140137  RH  035%=      5-min Rain = 0
KAOS 061650Z 18017KT 31/14 A3004 RMK A01 T03140139  RH  036%=      5-min Rain = 0
KAOS 061655Z 18014G20KT 31/14 A3004 RMK A01 T03140141  RH  036%=      5-min Rain = 0
KAOS 061700Z 18014G20KT 32/14 A3004 RMK A01 T03170143  RH  036%=      5-min Rain = 0
KAOS 061705Z 18016G21KT 32/14 A3004 RMK A01 T03180143  RH  036%=      5-min Rain = 0
KAOS 061710Z 18017G25KT 32/14 A3004 RMK A01 T03200143  RH  036%=      5-min Rain = 0
KAOS 061715Z 17015G20KT 32/14 A3004 RMK A01 T03220143  RH  035%=      5-min Rain = 0
KAOS 061720Z 17017KT 32/14 A3003 RMK A01 T03240140  RH  034%=      5-min Rain = 0
KAOS 061725Z 18016G21KT 33/14 A3003 RMK A01 T03260139  RH  034%=      5-min Rain = 0
KAOS 061730Z 19015KT 33/14 A3003 RMK A01 T03280138  RH  033%=      5-min Rain = 0
KAOS 061735Z 19014G19KT 33/14 A3004 RMK A01 T03340135  RH  031%=      5-min Rain = 0
KAOS 061740Z 20014KT 33/13 A3004 RMK A01 T03340132  RH  031%=      5-min Rain = 0
KAOS 061745Z 20013G18KT 33/13 A3004 RMK A01 T03310134  RH  032%=      5-min Rain = 0
KAOS 061750Z 19013G18KT 34/13 A3004 RMK A01 T03380134  RH  030%=      5-min Rain = 0
KAOS 061755Z 21013G18KT 34/13 A3003 RMK A01 T03370132  RH  030%=      5-min Rain = 0
KAOS 061800Z 20012G18KT 34/13 A3003 RMK A01 T03390132  RH  030%=      5-min Rain = 0
KAOS 061805Z 19014G19KT 34/13 A3003 RMK A01 T03390127  RH  029%=      5-min Rain = 0
KAOS 061810Z 20013G18KT 34/13 A3003 RMK A01 T03420125  RH  028%=      5-min Rain = 0
KAOS 061815Z 20013KT 35/13 A3003 RMK A01 T03460126  RH  028%=      5-min Rain = 0
KAOS 061820Z 20013G20KT 35/13 A3003 RMK A01 T03460126  RH  027%=      5-min Rain = 0
KAOS 061825Z 20014G20KT 35/13 A3003 RMK A01 T03460125  RH  027%=      5-min Rain = 0
KAOS 061830Z 21011G17KT 35/12 A3003 RMK A01 T03490123  RH  027%=      5-min Rain = 0
KAOS 061835Z 20012KT 35/13 A3002 RMK A01 T03530125  RH  026%=      5-min Rain = 0
KAOS 061840Z 18012KT 36/12 A3002 RMK A01 T03600123  RH  025%=      5-min Rain = 0
KAOS 061845Z 18013G19KT 36/12 A3002 RMK A01 T03590119  RH  024%=      5-min Rain = 0
KAOS 061850Z 19013G18KT 36/11 A3002 RMK A01 T03610113  RH  023%=      5-min Rain = 0
KAOS 061855Z 19011G17KT 36/11 A3002 RMK A01 T03580112  RH  023%=      5-min Rain = 0
KAOS 061900Z 18012G17KT 36/12 A3002 RMK A01 T03590116  RH  024%=      5-min Rain = 0
KAOS 061905Z 17013KT 37/12 A3001 RMK A01 T03660118  RH  023%=      5-min Rain = 0
KAOS 061910Z 17013G19KT 37/12 A3001 RMK A01 T03670116  RH  023%=      5-min Rain = 0
KAOS 061915Z 20012G18KT 37/11 A3001 RMK A01 T03670112  RH  022%=      5-min Rain = 0
KAOS 061920Z 19012G21KT 37/11 A3001 RMK A01 T03650110  RH  022%=      5-min Rain = 0
KAOS 061925Z 20013G18KT 37/10 A3001 RMK A01 T03680101  RH  021%=      5-min Rain = 0
KAOS 061930Z 18015KT 37/10 A30 RMK A01 T03680102  RH  021%=      5-min Rain = 0
KAOS 061935Z 19014G19KT 36/10 A30 RMK A01 T03640098  RH  021%=      5-min Rain = 0
KAOS 061940Z 22017G22KT 36/09 A30 RMK A01 T03630092  RH  020%=      5-min Rain = 0
KAOS 061945Z 21017G22KT 37/09 A30 RMK A01 T03700090  RH  019%=      5-min Rain = 0
KAOS 061950Z 21018G24KT 37/09 A30 RMK A01 T03730092  RH  019%=      5-min Rain = 0
KAOS 061955Z 20015G23KT 36/09 A30 RMK A01 T03620094  RH  020%=      5-min Rain = 0
KAOS 062000Z 19016G22KT 36/10 A30 RMK A01 T03630097  RH  021%=      5-min Rain = 0
KAOS 062005Z 19017G22KT 36/10 A2999 RMK A01 T03600099  RH  021%=      5-min Rain = 0
KAOS 062010Z 19017G23KT 37/10 A2999 RMK A01 T03680100  RH  020%=      5-min Rain = 0
KAOS 062015Z 19018G23KT 37/10 A2999 RMK A01 T03730100  RH  020%=      5-min Rain = 0
KAOS 062020Z 21018G23KT 37/11 A2999 RMK A01 T03730107  RH  021%=      5-min Rain = 0
KAOS 062025Z 19019G25KT 37/11 A2999 RMK A01 T03680105  RH  021%=      5-min Rain = 0
KAOS 062030Z 19018G25KT 37/11 A2999 RMK A01 T03720107  RH  021%=      5-min Rain = 0
KAOS 062035Z 18017G23KT 37/10 A2999 RMK A01 T03710102  RH  020%=      5-min Rain = 0
KAOS 062040Z 18018KT 37/10 A2999 RMK A01 T03690104  RH  021%=      5-min Rain = 0
KAOS 062045Z 18018G23KT 37/10 A2999 RMK A01 T03680098  RH  020%=      5-min Rain = 0
KAOS 062050Z 19015G23KT 36/09 A2998 RMK A01 T03610089  RH  020%=      5-min Rain = 0
KAOS 062055Z 21013G18KT 36/09 A2998 RMK A01 T03620087  RH  019%=      5-min Rain = 0
KAOS 062100Z 19012G18KT 37/09 A2998 RMK A01 T03660088  RH  019%=      5-min Rain = 0
KAOS 062105Z 18013KT 37/09 A2998 RMK A01 T03700088  RH  019%=      5-min Rain = 0
KAOS 062110Z 18016G22KT 37/08 A2998 RMK A01 T03730082  RH  018%=      5-min Rain = 0
KAOS 062115Z 17018G24KT 38/08 A2998 RMK A01 T03750079  RH  017%=      5-min Rain = 0
KAOS 062120Z 18015G22KT 37/08 A2997 RMK A01 T03730079  RH  017%=      5-min Rain = 0
KAOS 062125Z 17015G21KT 38/09 A2997 RMK A01 T03780085  RH  017%=      5-min Rain = 0
KAOS 062130Z 17017G22KT 37/09 A2997 RMK A01 T03730086  RH  018%=      5-min Rain = 0
KAOS 062135Z 18016G22KT 37/08 A2997 RMK A01 T03720083  RH  018%=      5-min Rain = 0
KAOS 062140Z 17015G22KT 38/09 A2996 RMK A01 T03760086  RH  018%=      5-min Rain = 0
KAOS 062145Z 17015G23KT 38/09 A2996 RMK A01 T03820087  RH  017%=      5-min Rain = 0
KAOS 062150Z 16017G22KT 38/09 A2996 RMK A01 T03790091  RH  018%=      5-min Rain = 0
KAOS 062155Z 15014G20KT 38/09 A2995 RMK A01 T03760090  RH  018%=      5-min Rain = 0
KAOS 062200Z 17014G20KT 37/09 A2995 RMK A01 T03740088  RH  018%=      5-min Rain = 0
KAOS 062205Z 16015G22KT 37/08 A2995 RMK A01 T03740084  RH  018%=      5-min Rain = 0
KAOS 062210Z 17014G19KT 38/08 A2995 RMK A01 T03750082  RH  017%=      5-min Rain = 0
KAOS 062215Z 18015G21KT 37/08 A2995 RMK A01 T03700083  RH  018%=      5-min Rain = 0
KAOS 062220Z 17015G21KT 37/08 A2995 RMK A01 T03680082  RH  018%=      5-min Rain = 0
KAOS 062225Z 17015G21KT 37/08 A2995 RMK A01 T03690083  RH  018%=      5-min Rain = 0
KAOS 062230Z 17015KT 37/08 A2995 RMK A01 T03670084  RH  018%=      5-min Rain = 0
KAOS 062235Z 16015KT 37/08 A2994 RMK A01 T03660082  RH  018%=      5-min Rain = 0
KAOS 062240Z 16013KT 37/08 A2994 RMK A01 T03660083  RH  018%=      5-min Rain = 0
KAOS 062245Z 15012KT 37/09 A2994 RMK A01 T03660085  RH  019%=      5-min Rain = 0
KAOS 062250Z 15011KT 37/09 A2994 RMK A01 T03650086  RH  019%=      5-min Rain = 0
KAOS 062255Z 15012KT 36/09 A2994 RMK A01 T03640087  RH  019%=      5-min Rain = 0
KAOS 062300Z 14013KT 36/09 A2995 RMK A01 T03630085  RH  019%=      5-min Rain = 0
KAOS 062305Z 15011KT 36/09 A2995 RMK A01 T03640085  RH  019%=      5-min Rain = 0
KAOS 062310Z 15011KT 37/09 A2994 RMK A01 T03650086  RH  019%=      5-min Rain = 0
KAOS 062315Z 16011G16KT 37/08 A2994 RMK A01 T03670084  RH  018%=      5-min Rain = 0
KAOS 062320Z 15011KT 37/08 A2994 RMK A01 T03710084  RH  018%=      5-min Rain = 0
KAOS 062325Z 16013G21KT 38/09 A2993 RMK A01 T03750085  RH  018%=      5-min Rain = 0
KAOS 062330Z 17013G18KT 38/08 A2993 RMK A01 T03750084  RH  018%=      5-min Rain = 0
KAOS 062335Z 15015G20KT 38/09 A2993 RMK A01 T03750086  RH  018%=      5-min Rain = 0
KAOS 062340Z 17014G19KT 37/09 A2993 RMK A01 T03730087  RH  018%=      5-min Rain = 0
KAOS 062345Z 17015KT 37/09 A2993 RMK A01 T03680087  RH  019%=      5-min Rain = 0
KAOS 062350Z 16015KT 37/09 A2993 RMK A01 T03670087  RH  019%=      5-min Rain = 0
KAOS 062355Z 17014G20KT 36/09 A2993 RMK A01 T03640089  RH  019%=      5-min Rain = 0
KAOS 070000Z 17015G22KT 36/09 A2994 RMK A01 T03630091  RH  020%=      5-min Rain = 0
KAOS 070005Z 21021G28KT 35/11 A2994 RMK A01 T03470112  RH  025%=      5-min Rain = 0
KAOS 070010Z 21021G27KT 33/12 A2994 RMK A01 T03290119  RH  029%=      5-min Rain = 0
KAOS 070015Z 21020G27KT 32/12 A2994 RMK A01 T03230119  RH  030%=      5-min Rain = 0
KAOS 070020Z 21019G25KT 32/12 A2995 RMK A01 T03230116  RH  029%=      5-min Rain = 0
KAOS 070025Z 20020G25KT 32/11 A2995 RMK A01 T03240112  RH  028%=      5-min Rain = 0
KAOS 070030Z 20019G25KT 32/11 A2995 RMK A01 T03240110  RH  028%=      5-min Rain = 0
KAOS 070035Z 20015G20KT 32/11 A2996 RMK A01 T03220109  RH  028%=      5-min Rain = 0
KAOS 070040Z 20017G24KT 32/11 A2996 RMK A01 T03230107  RH  028%=      5-min Rain = 0
KAOS 070045Z 20021G29KT 32/11 A2996 RMK A01 T03210108  RH  028%=      5-min Rain = 0
KAOS 070050Z 20022G32KT 31/12 A2996 RMK A01 T03070118  RH  032%=      5-min Rain = 0
KAOS 070055Z 21022G29KT 30/12 A2997 RMK A01 T03000120  RH  034%=      5-min Rain = 0
KAOS 070100Z 21023G31KT 30/11 A2997 RMK A01 T03010114  RH  033%=      5-min Rain = 0
KAOS 070105Z 20024G31KT 30/11 A2997 RMK A01 T03000114  RH  033%=      5-min Rain = 0
KAOS 070110Z 20024G33KT 30/12 A2998 RMK A01 T02980115  RH  034%=      5-min Rain = 0
KAOS 070115Z 20024G32KT 30/11 A2998 RMK A01 T02990114  RH  033%=      5-min Rain = 0
KAOS 070120Z 19024G30KT 30/11 A2998 RMK A01 T03010112  RH  032%=      5-min Rain = 0
KAOS 070125Z 19025G33KT 31/11 A2998 RMK A01 T03060109  RH  031%=      5-min Rain = 0
KAOS 070130Z 19024G30KT 31/11 A2998 RMK A01 T03060111  RH  031%=      5-min Rain = 0
KAOS 070135Z 18024KT 30/12 A2998 RMK A01 T03010117  RH  033%=      5-min Rain = 0
KAOS 070140Z 17022G27KT 30/12 A2997 RMK A01 T02970120  RH  035%=      5-min Rain = 0
KAOS 070145Z 17022G29KT 29/12 A2997 RMK A01 T02940123  RH  036%=      5-min Rain = 0
KAOS 070150Z 17020G28KT 29/12 A2998 RMK A01 T02930123  RH  037%=      5-min Rain = 0
KAOS 070155Z 17019G27KT 29/13 A2997 RMK A01 T02900126  RH  038%=      5-min Rain = 0
KAOS 070200Z 16017G23KT 29/12 A2997 RMK A01 T02900124  RH  037%=      5-min Rain = 0
KAOS 070205Z 17017G23KT 29/12 A2997 RMK A01 T02920120  RH  036%=      5-min Rain = 0
KAOS 070210Z 17017G22KT 30/12 A2997 RMK A01 T02950118  RH  035%=      5-min Rain = 0
KAOS 070215Z 17018G24KT 30/12 A2997 RMK A01 T02970116  RH  034%=      5-min Rain = 0
KAOS 070220Z 17019G26KT 30/11 A2997 RMK A01 T02990114  RH  033%=      5-min Rain = 0
KAOS 070225Z 18021KT 30/11 A2997 RMK A01 T03020111  RH  032%=      5-min Rain = 0
KAOS 070230Z 18020G28KT 30/12 A2998 RMK A01 T02970116  RH  034%=      5-min Rain = 0
KAOS 070235Z 18022G28KT 29/12 A2998 RMK A01 T02910120  RH  036%=      5-min Rain = 0
KAOS 070240Z 18021G27KT 29/12 A2998 RMK A01 T02860121  RH  037%=      5-min Rain = 0
KAOS 070245Z 18021G27KT 28/12 A2998 RMK A01 T02810124  RH  039%=      5-min Rain = 0
KAOS 070250Z 18019G25KT 28/13 A2999 RMK A01 T02770126  RH  041%=      5-min Rain = 0
KAOS 070255Z 18017KT 28/13 A2999 RMK A01 T02750128  RH  042%=      5-min Rain = 0
KAOS 070300Z 18015G22KT 27/13 A2999 RMK A01 T02730128  RH  042%=      5-min Rain = 0
KAOS 070305Z 18015G20KT 27/13 A2999 RMK A01 T02710128  RH  043%=      5-min Rain = 0
KAOS 070310Z 18017KT 27/13 A2999 RMK A01 T02710128  RH  043%=      5-min Rain = 0
KAOS 070315Z 18017G22KT 27/13 A2999 RMK A01 T02710127  RH  043%=      5-min Rain = 0
KAOS 070320Z 18017G22KT 27/13 A2999 RMK A01 T02700126  RH  043%=      5-min Rain = 0
KAOS 070325Z 17018G23KT 27/13 A2999 RMK A01 T02690126  RH  043%=      5-min Rain = 0
KAOS 070330Z 17017G22KT 27/12 A2998 RMK A01 T02690124  RH  042%=      5-min Rain = 0
KAOS 070335Z 18017G22KT 27/12 A2998 RMK A01 T02690122  RH  042%=      5-min Rain = 0
KAOS 070340Z 19017KT 27/12 A2998 RMK A01 T02680122  RH  042%=      5-min Rain = 0
KAOS 070345Z 19016G21KT 27/12 A2999 RMK A01 T02650124  RH  043%=      5-min Rain = 0
KAOS 070350Z 19015KT 26/13 A2999 RMK A01 T02630126  RH  044%=      5-min Rain = 0
KAOS 070355Z 19014KT 26/13 A2999 RMK A01 T02610126  RH  045%=      5-min Rain = 0
KAOS 070400Z 19012KT 26/13 A2999 RMK A01 T02600125  RH  045%=      5-min Rain = 0
KAOS 070405Z 19012KT 26/12 A2999 RMK A01 T02600124  RH  045%=      5-min Rain = 0
KAOS 070410Z 19011KT 26/12 A2999 RMK A01 T02590124  RH  045%=      5-min Rain = 0
KAOS 070415Z 18011KT 26/12 A2999 RMK A01 T02590123  RH  044%=      5-min Rain = 0
KAOS 070420Z 18011KT 26/12 A2999 RMK A01 T02580121  RH  044%=      5-min Rain = 0
KAOS 070425Z 18010KT 26/12 A2999 RMK A01 T02580120  RH  044%=      5-min Rain = 0
KAOS 070430Z 18010KT 26/12 A2999 RMK A01 T02570119  RH  044%=      5-min Rain = 0
KAOS 070435Z 18010KT 26/12 A2999 RMK A01 T02580117  RH  043%=      5-min Rain = 0
KAOS 070440Z 18009KT 26/12 A2999 RMK A01 T02570116  RH  043%=      5-min Rain = 0
KAOS 070445Z 18010KT 26/12 A2999 RMK A01 T02570115  RH  043%=      5-min Rain = 0
KAOS 070450Z 18010KT 26/11 A2999 RMK A01 T02590114  RH  042%=      5-min Rain = 0
KAOS 070455Z 18009KT 26/11 A2999 RMK A01 T02600113  RH  041%=      5-min Rain = 0

Page generated in 0.0355 seconds.